Ann Arbor, MI

5:40 PM EST on December 18, 2014 (GMT -0500)
Walker Briar Works | Change Station
CLOSE
Current Station
Personal Weather Station
Location: Ann Arbor, MI
Elevation: 961 ft
Nearby Weather Stations
Active Advisory: Special Statement

Elev 961 ft 42.26 °N, 83.77 °W | Updated 48 seconds ago

Overcast
Overcast
30.2 °F
Feels Like 30 °F
N
0.0
Wind Variable Wind from West
Gusts 3.1 mph

Today
High -- | Low -- °F
--% Chance of Precip.
Yesterday
High -- | Low -- °F
Precip. -- in
7:59 AM 5:04 PM
Waning Crescent, 12% visible
Pressure 30.17 in
Visibility 8.0 miles
Clouds Few 900 ft
Mostly Cloudy 1300 ft
Overcast 2500 ft
Windchill 30 °F
Dew Point 29 °F
Humidity 96%
Rainfall 0.00 in
Snow Depth Not available.
UV 0 out of 12
Pollen .10 out of 12
Air Quality Not available.
Flu Activity Not available.
SPECI KARB 182224Z AUTO 26004KT 8SM FEW009 BKN013 OVC025 M01/M02 A3017 RMK AO2 I1000 T10061017

More Conditions Fewer Conditions

Pressure 30.17 in
Visibility 8.0 miles
Clouds Few 900 ft
Mostly Cloudy 1300 ft
Overcast 2500 ft
Windchill 30 °F
Dew Point 29 °F
Humidity 96%
Rainfall 0.00 in
Snow Depth Not available.
UV 0 out of 12
Pollen .10 out of 12
Air Quality Not available.
Flu Activity Not available.
SPECI KARB 182224Z AUTO 26004KT 8SM FEW009 BKN013 OVC025 M01/M02 A3017 RMK AO2 I1000 T10061017

More Conditions Fewer Conditions

10-Day Weather Forecast

Almanac

Astronomy

Dec. 18, 2014 Rise Set
Actual Time
Civil Twilight
Nautical Twilight
Astronomical Twilight
Moon
Length of Visible Light
Length of Day
Tomorrow will be .
, % of the Moon is Illuminated

Today's Extremes

State Highs State Lows

Community

WunderPhotos

Upload Photos

1,779,010 photos uploaded!

WunderBlogs® & News

Nearby

Air Quality

  Air Quality AQ Index Pollutant
Not available.

Snow Depth

Station Depth Elevation

Earthquake Activity

City Distance Mag. Time & Date
Minimum magnitude displayed is 2.5.

Coastal Water Temperatures

Place Temperature

Nearby Weather Stations